Stations météo

réclame
Mon MeteoGroup
Meßstetten-Appental, Allemagne (10827): Température de l'air & dewpoint: 13.06.2019 18:00:00 - 19.06.2019 18:00:00 (CEST)Meßstetten-Appental, Allemagne (10827): Température de l'air 5cm & Température de l'air -5cm: 13.06.2019 18:00:00 - 19.06.2019 18:00:00 (CEST)Meßstetten-Appental, Allemagne (10827): Température de l'air -20cm & Température de l'air -100cm: 13.06.2019 18:00:00 - 19.06.2019 18:00:00 (CEST)Meßstetten-Appental, Allemagne (10827): Vitesse du vent & gusts: 13.06.2019 18:00:00 - 19.06.2019 18:00:00 (CEST)Meßstetten-Appental, Allemagne (10827): Direction du vent: 13.06.2019 18:00:00 - 19.06.2019 18:00:00 (CEST)Meßstetten-Appental, Allemagne (10827): visibility: 13.06.2019 18:00:00 - 19.06.2019 18:00:00 (CEST)Meßstetten-Appental, Allemagne (10827): Ensoleillement: 13.06.2019 18:00:00 - 19.06.2019 18:00:00 (CEST)Meßstetten-Appental, Allemagne (10827): Quantités de précipitations: 13.06.2019 18:00:00 - 19.06.2019 18:00:00 (CEST)
Date & Time tt [°C] td [°C] tt 5cm [°C] tt -5cm [°C] tt -20cm [°C] tt -100cm [°C] ff [km/h] ff [knt] fx [km/h] fx [knt] dd vv [km] sd [min] rr [mm]
19.06.2019 18:00:00 23,7 12,1 25,1 28,7 20,4 12,7 10 5 23 12 NNW 43 50 0,0
19.06.2019 17:00:00 24,6 10,2 25,6 28,9 20,0 12,7 16 9 30 16 SSW 45 32 0,0
19.06.2019 16:00:00 24,3 11,5 25,2 29,7 19,5 12,7 16 8 29 16 S 63 32 0,0
19.06.2019 15:00:00 23,8 13,2 23,6 29,7 19,0 12,7 7 4 20 11 SSW 55 39 0,0
19.06.2019 14:00:00 23,5 10,8 23,1 29,9 18,5 12,7 6 4 20 11 SSW 58 46 0,0
19.06.2019 13:00:00 24,1 10,8 25,9 28,1 18,0 12,6 11 6 24 13 WSW 68 51 0,0
19.06.2019 12:00:00 23,7 9,1 25,3 27,0 17,7 12,6 13 7 25 13 SSW 35 60 0,0
19.06.2019 11:00:00 22,7 12,3 23,9 24,1 17,6 12,6 9 5 15 8 S 56 60 0,0
19.06.2019 10:00:00 21,7 12,3 22,3 21,0 17,6 12,6 7 4 15 8 S 70 60 0,0
19.06.2019 09:00:00 19,5 10,2 19,4 18,2 17,7 12,6 11 6 21 11 SSW 49 60 0,0
19.06.2019 08:00:00 17,9 10,5 16,9 15,9 18,0 12,6 6 3 10 6 S 43 60 0,0
19.06.2019 07:00:00 15,5 10,8 11,4 14,4 18,2 12,6 5 3 8 5 SSE 44 16 0,0
19.06.2019 06:00:00 11,7 9,7 7,2 14,6 18,5 12,6 3 1 16 8 SW 60 0 0,0
19.06.2019 05:00:00 13,3 9,9 8,6 15,2 18,8 12,6 7 4 17 9 SSE 65 0 0,0
19.06.2019 04:00:00 12,9 10,3 8,8 15,7 19,1 12,6 9 5 14 8 SE 54 0 0,0
19.06.2019 03:00:00 14,8 10,6 11,2 16,5 19,4 12,6 9 5 15 8 SE 66 0 0,0
19.06.2019 02:00:00 14,7 10,8 11,0 17,3 19,6 12,6 10 5 18 10 SE 56 0 0,0
19.06.2019 01:00:00 16,5 12,3 12,9 18,2 19,9 12,6 10 5 17 9 ESE 46 0 0,0
19.06.2019 00:00:00 15,3 13,0 11,2 19,0 20,1 12,6 5 3 9 5 S 40 0 0,0
18.06.2019 23:00:00 15,2 12,8 10,9 20,0 20,2 12,6 4 2 8 4 SSE 43 0 0,0
18.06.2019 22:00:00 14,6 12,8 11,7 21,5 20,3 12,6 0 0 4 2 N 40 0 0,0
18.06.2019 21:00:00 18,1 15,1 15,2 23,0 20,2 12,6 0 0 3 2 N 34 0 0,0
18.06.2019 20:00:00 20,7 15,6 18,5 24,1 20,1 12,5 0 0 4 2 N 53 0 0,0
18.06.2019 19:00:00 20,8 12,3 19,3 24,9 20,0 12,5 2 1 11 6 W 68 0 0,0
18.06.2019 18:00:00 21,2 12,6 20,0 26,4 19,7 12,5 10 5 15 8 WNW 64 26 0,0
18.06.2019 17:00:00 20,3 12,2 21,7 26,6 19,2 12,5 5 3 45 25 E 66 16 0,3
18.06.2019 16:00:00 23,3 12,2 23,4 29,9 18,6 12,5 4 2 14 8 NE 56 25 0,0
18.06.2019 15:00:00 23,3 11,7 23,6 31,1 18,0 12,5 8 4 18 10 S 62 50 0,0
18.06.2019 14:00:00 23,5 12,7 26,4 29,5 17,4 12,5 11 6 23 12 SW 54 40 0,0
18.06.2019 13:00:00 22,8 12,7 25,6 28,7 16,9 12,5 7 4 17 9 ESE 57 55 0,0
18.06.2019 12:00:00 22,5 13,2 25,1 26,5 16,5 12,5 7 4 19 10 N 43 60 0,0
18.06.2019 11:00:00 21,6 11,5 23,9 23,6 16,3 12,5 5 3 10 6 SSW 42 60 0,0
18.06.2019 10:00:00 20,4 11,6 21,9 20,6 16,2 12,5 5 3 9 5 SE 44 60 0,0
18.06.2019 09:00:00 19,7 13,2 20,7 17,4 16,3 12,5 4 2 9 5 NE 33 60 0,0
18.06.2019 08:00:00 17,1 13,2 15,4 14,7 16,5 12,5 9 5 11 6 ESE 23 60 0,0
18.06.2019 07:00:00 14,9 12,5 11,9 12,9 16,8 12,5 3 2 8 4 E 10 32 0,0
18.06.2019 06:00:00 10,7 10,3 6,9 12,7 17,1 12,5 4 2 6 3 E 12 0 0,0
18.06.2019 05:00:00 10,3 9,3 6,1 13,3 17,4 12,5 4 2 9 5 E 14 0 0,0
18.06.2019 04:00:00 12,0 10,7 8,0 13,8 17,7 12,5 6 3 9 5 E 22 0 0,0
18.06.2019 03:00:00 11,6 10,5 8,1 14,3 18,0 12,5 6 3 9 5 ESE 22 0 0,0
18.06.2019 02:00:00 11,7 10,4 8,4 14,9 18,2 12,4 7 4 10 6 ESE 25 0 0,0
18.06.2019 01:00:00 12,4 10,8 8,9 15,7 18,5 12,4 7 4 9 5 E 27 0 0,0
18.06.2019 00:00:00 12,7 10,8 8,1 16,6 18,7 12,4 8 4 10 6 ESE 36 0 0,0
17.06.2019 23:00:00 11,9 10,4 7,5 17,8 18,8 12,4 5 3 10 5 E 23 0 0,0
17.06.2019 22:00:00 13,5 11,2 8,5 19,5 18,8 12,4 4 2 12 6 E 32 0 0,0
17.06.2019 21:00:00 17,0 11,7 13,5 21,5 18,6 12,4 8 4 16 9 E 52 41 0,0
17.06.2019 20:00:00 19,2 11,3 17,6 23,4 18,3 12,4 14 7 21 11 E 47 59 0,0
17.06.2019 19:00:00 20,2 11,5 20,2 24,9 18,0 12,4 12 7 23 13 E 46 52 0,0
17.06.2019 18:00:00 20,5 12,2 21,1 26,0 17,6 12,4 16 9 26 14 E 43 59 0,0
17.06.2019 17:00:00 20,8 12,7 22,2 26,0 17,1 12,4 13 7 29 16 E 31 50 0,0
17.06.2019 16:00:00 19,6 12,2 20,1 25,8 16,6 12,4 16 9 29 15 E 43 49 0,0
17.06.2019 15:00:00 20,3 12,4 22,6 25,4 16,1 12,4 14 8 29 16 E 24 59 0,0
17.06.2019 14:00:00 19,7 11,0 21,9 24,0 15,7 12,4 14 7 26 14 E 26 58 0,0
17.06.2019 13:00:00 19,0 11,3 20,3 22,5 15,4 12,4 14 8 25 13 E 39 60 0,0
17.06.2019 12:00:00 18,2 10,7 19,1 20,5 15,2 12,4 18 10 27 15 ENE 32 60 0,0
17.06.2019 11:00:00 16,8 9,0 18,0 18,5 15,1 12,4 19 11 29 16 ENE 28 60 0,0
17.06.2019 10:00:00 15,9 8,7 15,8 16,5 15,1 12,4 21 11 29 16 E 27 60 0,0
17.06.2019 09:00:00 15,1 8,0 14,6 14,4 15,2 12,3 16 9 27 15 E 49 60 0,0
17.06.2019 08:00:00 13,4 8,9 11,6 12,5 15,5 12,3 16 9 22 12 E 35 60 0,0
17.06.2019 07:00:00 11,9 8,9 9,1 11,1 15,7 12,3 14 7 19 10 ENE 27 50 0,0
17.06.2019 06:00:00 9,3 8,4 5,3 10,8 16,0 12,3 5 3 10 6 E 21 0 0,0
17.06.2019 05:00:00 10,0 9,3 6,1 11,3 16,3 12,3 9 5 16 9 E 13 0 0,0
17.06.2019 04:00:00 10,4 10,0 7,3 11,7 16,6 12,3 9 5 14 8 E 9 0 0,0
17.06.2019 03:00:00 10,7 10,0 7,6 12,1 16,9 12,3 10 6 16 9 E 12 0 0,0
17.06.2019 02:00:00 9,2 8,4 5,1 12,7 17,2 12,3 6 3 9 5 ESE 16 0 0,0
17.06.2019 01:00:00 9,7 8,3 5,6 13,5 17,5 12,3 6 3 11 6 E 24 0 0,0
17.06.2019 00:00:00 9,8 8,0 5,9 14,4 17,7 12,3 7 4 11 6 ESE 42 0 0,0
16.06.2019 23:00:00 10,2 8,5 6,2 15,6 17,8 12,3 6 3 10 5 ESE 42 0 0,0
16.06.2019 22:00:00 11,2 8,7 7,2 17,2 17,8 12,3 6 3 10 5 E 52 0 0,0
16.06.2019 21:00:00 15,2 9,5 12,4 19,0 17,7 12,3 2 1 9 5 NE 69 46 0,0
16.06.2019 20:00:00 16,6 8,8 15,7 20,4 17,6 12,2 4 2 11 6 N 67 60 0,0
16.06.2019 19:00:00 16,8 8,3 17,8 21,2 17,4 12,2 5 3 16 8 NNW 69 60 0,0
16.06.2019 18:00:00 16,0 8,0 18,4 21,2 17,2 12,2 7 4 17 9 NNW 54 32 0,0
16.06.2019 17:00:00 16,0 7,7 18,3 21,4 16,9 12,2 11 6 21 11 NNW 47 16 0,0
16.06.2019 16:00:00 15,6 10,0 16,2 21,3 16,7 12,2 9 5 21 11 NW 63 16 0,0
16.06.2019 15:00:00 15,5 9,7 17,2 20,7 16,5 12,2 6 4 16 8 WNW 62 13 0,0
16.06.2019 14:00:00 14,4 9,5 15,1 20,6 16,4 12,2 9 5 15 8 NW 70 20 0,0
16.06.2019 13:00:00 14,2 10,0 14,7 18,5 16,3 12,2 8 5 17 9 WNW 47 1 0,0
16.06.2019 12:00:00 12,5 9,2 12,6 17,8 16,3 12,2 12 6 20 11 NNW 41 17 0,0
16.06.2019 11:00:00 11,7 10,0 10,7 15,9 16,4 12,2 10 5 20 11 WNW 42 0 0,0
16.06.2019 10:00:00 11,3 10,1 11,4 14,7 16,6 12,2 7 4 18 10 NW 24 0 0,0
16.06.2019 09:00:00 10,7 9,9 9,7 14,4 16,8 12,2 9 5 18 10 NW 20 0 0,0
16.06.2019 08:00:00 10,7 10,1 9,6 14,2 17,0 12,2 9 5 18 10 NNW 21 0 0,1
16.06.2019 07:00:00 10,7 9,9 9,4 14,3 17,2 12,2 8 4 14 8 NW 13 0 0,6
16.06.2019 06:00:00 10,5 9,7 9,1 14,6 17,5 12,1 4 2 11 6 NNW 10 0 0,9
16.06.2019 05:00:00 11,2 10,7 9,8 14,9 17,7 12,1 0 0 6 3 N 8 0 0,8
16.06.2019 04:00:00 11,2 10,7 9,7 15,3 18,0 12,1 2 1 9 5 SW 9 0 0,2
16.06.2019 03:00:00 11,5 10,9 9,9 15,6 18,2 12,1 5 3 9 5 SSW 13 0 0,2
16.06.2019 02:00:00 11,7 11,2 10,1 15,9 18,5 12,1 5 3 10 5 W 12 0 0,2
16.06.2019 01:00:00 12,0 11,5 10,4 16,4 18,8 12,1 5 3 12 6 WSW 11 0 1,6
16.06.2019 00:00:00 12,1 11,7 10,6 17,0 19,0 12,1 6 3 16 9 S 10 0 6,3
15.06.2019 23:00:00 12,6 11,2 10,7 18,6 19,1 12,1 5 3 27 14 W 2,6 0 1,8
15.06.2019 22:00:00 14,5 10,3 11,6 20,1 19,2 12,1 19 10 29 16 WNW 16 0 0,0
15.06.2019 21:00:00 16,2 10,7 14,1 21,5 19,1 12,1 6 4 21 12 NNW 70 0 0,0
15.06.2019 20:00:00 17,1 10,3 15,7 23,2 18,9 12,1 11 6 23 12 NNW 70 20 0,0
15.06.2019 19:00:00 18,5 10,4 19,6 24,6 18,7 12,1 13 7 23 12 NNW 52 38 0,0
15.06.2019 18:00:00 18,0 11,0 18,2 26,0 18,3 12,1 14 8 24 13 NW 69 25 0,0
15.06.2019 17:00:00 18,6 10,5 20,9 26,6 17,9 12,1 13 7 21 11 WNW 43 43 0,0
15.06.2019 16:00:00 19,1 11,7 22,7 27,2 17,4 12,1 10 5 23 13 NW 34 52 0,0
15.06.2019 15:00:00 17,8 10,7 19,9 26,8 17,0 12,1 14 8 27 15 WNW 46 55 0,0
15.06.2019 14:00:00 19,0 12,0 23,4 25,2 16,7 12,1 17 9 26 14 WNW 27 48 0,0
15.06.2019 13:00:00 18,5 10,9 19,9 22,9 16,5 12,1 15 8 30 16 WNW 53 37 0,0
15.06.2019 12:00:00 18,0 11,3 18,3 21,1 16,3 12,1 14 8 28 15 W 70 8 0,0
15.06.2019 11:00:00 17,9 10,4 19,0 20,3 16,2 12,1 16 9 33 18 W 70 46 0,0
15.06.2019 10:00:00 17,9 12,0 18,9 19,2 16,2 12,1 14 8 32 17 W 60 60 0,0
15.06.2019 09:00:00 17,7 12,1 18,2 17,2 16,3 12,1 14 7 36 19 W 62 58 0,0
15.06.2019 08:00:00 16,4 10,7 15,8 15,3 16,5 12,1 14 8 30 16 W 45 60 0,0
15.06.2019 07:00:00 15,1 11,4 12,9 14,5 16,7 12,1 13 7 31 17 W 39 5 0,0
15.06.2019 06:00:00 15,6 10,6 12,6 14,5 16,9 12,1 21 11 38 20 W 47 0 0,0
15.06.2019 05:00:00 16,6 8,9 11,4 14,7 17,1 12,1 6 4 18 10 S 60 0 0,0
15.06.2019 04:00:00 18,1 8,6 12,9 15,3 17,3 12,1 9 5 21 11 ESE 70 0 0,0
15.06.2019 03:00:00 18,4 8,9 14,2 15,8 17,5 12,1 15 8 22 12 ESE 70 0 0,0
15.06.2019 02:00:00 17,4 10,5 13,6 16,5 17,6 12,1 11 6 19 11 ESE 62 0 0,0
15.06.2019 01:00:00 17,3 11,4 14,7 17,1 17,8 12,1 19 10 30 16 E 48 0 0,0
15.06.2019 00:00:00 17,0 11,2 14,2 17,5 18,0 12,1 14 8 21 11 E 52 0 0,0
14.06.2019 23:00:00 17,2 10,9 14,1 18,1 18,1 12,1 14 8 19 10 E 66 0 0,0
14.06.2019 22:00:00 17,3 10,8 13,9 19,0 18,1 12,1 14 7 27 15 E 60 0 0,0
14.06.2019 21:00:00 18,1 10,9 14,8 20,6 18,0 12,1 14 8 25 14 ENE 63 0 0,0
14.06.2019 20:00:00 19,8 11,1 17,4 22,3 17,8 12,1 16 9 26 14 ENE 70 16 0,0
14.06.2019 19:00:00 20,8 10,6 19,6 23,7 17,5 12,1 10 6 29 16 ENE 70 53 0,0
14.06.2019 18:00:00 21,0 11,4 21,3 24,8 17,2 12,1 16 9 27 15 ENE 47 43 0,0
14.06.2019 17:00:00 21,5 11,5 21,8 24,5 16,8 12,1 5 3 18 10 NE 54 24 0,0
14.06.2019 16:00:00 22,1 10,9 23,3 24,5 16,4 12,1 6 4 26 14 N 66 18 0,0
14.06.2019 15:00:00 22,3 9,2 22,4 24,8 15,9 12,1 10 5 21 11 WNW 70 32 0,0
14.06.2019 14:00:00 22,7 8,9 24,3 23,8 15,4 12,1 12 7 24 13 WSW 55 26 0,0
14.06.2019 13:00:00 22,7 11,1 24,2 23,7 15,0 12,1 14 8 25 13 W 39 56 0,0
14.06.2019 12:00:00 23,1 9,8 23,5 22,2 14,7 12,1 2 1 15 8 ESE 53 58 0,0
14.06.2019 11:00:00 21,0 9,6 21,8 19,8 14,6 12,1 10 5 19 10 ESE 35 56 0,0
14.06.2019 10:00:00 18,7 9,8 17,4 17,3 14,6 12,1 11 6 20 11 SE 37 49 0,0
14.06.2019 09:00:00 17,6 11,4 17,0 14,4 14,7 12,1 10 6 25 13 E 24 41 0,0
14.06.2019 08:00:00 16,1 10,5 14,3 13,0 14,9 12,1 15 8 24 13 E 32 60 0,0
14.06.2019 07:00:00 14,7 9,6 12,1 11,4 15,1 12,1 10 5 24 13 E 23 29 0,0
14.06.2019 06:00:00 13,2 8,1 9,4 10,9 15,4 12,1 15 8 24 13 ESE 48 0 0,0
14.06.2019 05:00:00 9,5 6,5 5,7 10,9 15,7 12,1 9 5 14 8 E 53 0 0,0
14.06.2019 04:00:00 9,3 6,4 5,4 11,4 16,1 12,1 8 5 11 6 E 65 0 0,0
14.06.2019 03:00:00 10,4 6,5 5,1 11,9 16,4 12,1 6 3 9 5 E 56 0 0,0
14.06.2019 02:00:00 9,4 6,2 5,2 12,6 16,7 12,1 8 4 15 8 E 63 0 0,0
14.06.2019 01:00:00 9,5 6,2 5,4 13,4 16,9 12,1 4 2 16 9 E 61 0 0,0
14.06.2019 00:00:00 10,0 6,9 6,3 14,4 17,1 12,1 10 5 16 9 SE 67 0 0,0
13.06.2019 23:00:00 9,5 7,1 6,1 15,8 17,2 12,1 8 5 10 6 ESE 66 0 0,0
13.06.2019 22:00:00 12,0 7,9 7,9 17,5 17,3 12,1 4 2 13 7 E 70 0 0,0
13.06.2019 21:00:00 15,8 9,4 12,4 19,5 17,2 12,1 6 4 9 5 ESE 70 45 0,0
13.06.2019 20:00:00 19,0 7,6 17,8 20,6 17,0 12,1 5 3 18 10 NNW 70 50 0,0
13.06.2019 19:00:00 18,3 5,7 16,5 21,8 16,6 12,1 7 4 20 11 W 70 35 0,0
13.06.2019 18:00:00 18,7 5,4 16,8 24,0 16,2 12,1 12 7 26 14 SSW 70 53 0,0

tt = Température de l'air
td = dewpoint
tt 5cm = Température de l'air 5cm
tt -5cm = Température de l'air -5cm
tt -20cm = Température de l'air -20cm
tt -100cm = Température de l'air -100cm
ff = Vitesse du vent
fx = gusts
dd = Direction du vent
vv = visibility
sd = Ensoleillement
rr = Quantités de précipitations

stations d'obs. à proximité